createdAt,value
2019-01-13T00:00:41.161Z,80.05
2019-01-13T00:03:07.450Z,79.96
2019-01-13T00:05:33.755Z,80.01
2019-01-13T00:08:00.053Z,80.20
2019-01-13T00:10:26.356Z,80.08
2019-01-13T00:12:52.656Z,80.16
2019-01-13T00:15:18.952Z,80.09
2019-01-13T00:17:45.271Z,79.74
2019-01-13T00:20:11.587Z,79.50
2019-01-13T00:22:37.889Z,79.40
2019-01-13T00:25:04.198Z,79.53
2019-01-13T00:27:30.511Z,80.11
2019-01-13T00:29:56.827Z,80.08
2019-01-13T00:32:23.131Z,80.19
2019-01-13T00:34:49.440Z,80.36
2019-01-13T00:37:15.735Z,80.30
2019-01-13T00:39:42.050Z,80.16
2019-01-13T00:42:08.363Z,79.91
2019-01-13T00:44:34.678Z,80.18
2019-01-13T00:47:00.978Z,80.31
2019-01-13T00:49:27.275Z,80.56
2019-01-13T00:51:53.567Z,80.43
2019-01-13T00:54:19.904Z,80.81
2019-01-13T00:56:46.163Z,80.22
2019-01-13T00:59:12.457Z,80.09
2019-01-13T01:01:38.757Z,79.51
2019-01-13T01:04:05.066Z,79.02
2019-01-13T01:06:31.431Z,79.42
2019-01-13T01:08:57.735Z,79.96
2019-01-13T01:11:24.044Z,79.86
2019-01-13T01:13:50.356Z,80.00
2019-01-13T01:16:16.646Z,79.62
2019-01-13T01:18:42.990Z,79.13
2019-01-13T01:21:09.261Z,78.89
2019-01-13T01:23:35.568Z,79.20
2019-01-13T01:26:01.879Z,79.33
2019-01-13T01:28:28.175Z,79.86
2019-01-13T01:30:54.503Z,79.62
2019-01-13T01:33:25.949Z,79.56
2019-01-13T01:35:47.099Z,79.37
2019-01-13T01:38:13.396Z,79.23
2019-01-13T01:40:39.702Z,79.20
2019-01-13T01:43:06.007Z,79.53
2019-01-13T01:45:32.318Z,79.43
2019-01-13T01:47:58.644Z,79.25
2019-01-13T01:50:24.952Z,79.59
2019-01-13T01:52:51.261Z,79.78
2019-01-13T01:55:17.558Z,79.78
2019-01-13T01:57:43.858Z,79.58
2019-01-13T02:00:10.210Z,79.37
2019-01-13T02:02:36.522Z,79.26
2019-01-13T02:05:02.821Z,79.27
2019-01-13T02:07:29.137Z,79.00
2019-01-13T02:09:55.460Z,79.33
2019-01-13T02:12:21.760Z,78.91
2019-01-13T02:14:48.077Z,79.08
2019-01-13T02:17:14.395Z,79.22
2019-01-13T02:19:40.696Z,79.27
2019-01-13T02:22:06.991Z,79.26
2019-01-13T02:24:33.307Z,79.37
2019-01-13T02:26:59.598Z,79.00
2019-01-13T02:29:25.913Z,79.24
2019-01-13T02:31:52.222Z,79.43
2019-01-13T02:34:18.517Z,79.39
2019-01-13T02:36:44.818Z,86.24
2019-01-13T02:39:11.109Z,85.48
2019-01-13T02:41:37.442Z,76.97
2019-01-13T02:44:03.752Z,76.17
2019-01-13T02:46:30.058Z,76.08
2019-01-13T02:48:56.361Z,76.79
2019-01-13T02:51:22.656Z,77.84
2019-01-13T02:53:48.993Z,78.42
2019-01-13T02:56:15.287Z,78.61
2019-01-13T02:58:41.580Z,79.10
2019-01-13T03:01:07.883Z,79.02
2019-01-13T03:03:34.196Z,78.77
2019-01-13T03:06:00.524Z,78.69
2019-01-13T03:08:26.849Z,78.42
2019-01-13T03:10:53.156Z,78.20
2019-01-13T03:13:19.462Z,78.23
2019-01-13T03:15:45.756Z,78.38
2019-01-13T03:18:12.078Z,78.26
2019-01-13T03:20:38.372Z,77.75
2019-01-13T03:23:04.668Z,77.77
2019-01-13T03:25:30.980Z,77.71
2019-01-13T03:27:57.282Z,77.85
2019-01-13T03:30:23.615Z,77.87
2019-01-13T03:32:49.915Z,77.72
2019-01-13T03:35:16.214Z,77.86
2019-01-13T03:37:42.513Z,78.01
2019-01-13T03:40:08.800Z,77.50
2019-01-13T03:42:35.117Z,77.20
2019-01-13T03:45:01.421Z,77.56
2019-01-13T03:47:27.752Z,77.58
2019-01-13T03:49:54.065Z,77.71
2019-01-13T03:52:20.364Z,77.40
2019-01-13T03:54:46.662Z,77.28
2019-01-13T03:57:12.949Z,77.89
2019-01-13T03:59:39.257Z,78.46
2019-01-13T04:02:05.558Z,78.99
2019-01-13T04:04:31.865Z,79.19
2019-01-13T04:06:58.166Z,79.13
2019-01-13T04:09:24.472Z,79.78
2019-01-13T04:11:50.806Z,80.02
2019-01-13T04:14:17.097Z,80.02
2019-01-13T04:16:43.391Z,80.45
2019-01-13T04:19:09.688Z,80.61
2019-01-13T04:21:35.998Z,80.59
2019-01-13T04:24:02.315Z,80.72
2019-01-13T04:26:28.638Z,80.55
2019-01-13T04:28:54.959Z,80.77
2019-01-13T04:31:26.635Z,80.83
2019-01-13T04:33:47.548Z,80.97
2019-01-13T04:36:13.844Z,80.92
2019-01-13T04:38:40.158Z,81.17
2019-01-13T04:41:06.453Z,81.22
2019-01-13T04:43:32.766Z,81.21
2019-01-13T04:45:59.061Z,81.24
2019-01-13T04:48:25.384Z,81.39
2019-01-13T04:50:51.695Z,81.07
2019-01-13T04:53:18.001Z,81.27
2019-01-13T04:55:44.299Z,81.49
2019-01-13T04:58:10.601Z,81.39
2019-01-13T05:00:36.914Z,81.25
2019-01-13T05:03:03.213Z,81.32
2019-01-13T05:05:29.502Z,81.12
2019-01-13T05:07:55.802Z,81.56
2019-01-13T05:10:22.092Z,81.80
2019-01-13T05:12:48.438Z,81.95
2019-01-13T05:15:14.736Z,81.91
2019-01-13T05:17:41.046Z,82.02
2019-01-13T05:20:07.345Z,82.12
2019-01-13T05:22:33.659Z,82.05
2019-01-13T05:24:59.961Z,82.10
2019-01-13T05:27:26.265Z,82.02
2019-01-13T05:29:52.580Z,81.87
2019-01-13T05:32:18.886Z,82.15
2019-01-13T05:34:45.181Z,82.38
2019-01-13T05:37:11.474Z,82.02
2019-01-13T05:39:37.785Z,81.64
2019-01-13T05:42:04.147Z,81.74
2019-01-13T05:44:30.455Z,81.98
2019-01-13T05:46:56.784Z,82.09
2019-01-13T05:49:23.100Z,82.26
2019-01-13T05:51:49.399Z,82.33
2019-01-13T05:54:15.705Z,82.15
2019-01-13T05:56:42.013Z,82.24
2019-01-13T05:59:08.345Z,82.32
2019-01-13T06:01:34.655Z,82.24
2019-01-13T06:04:00.952Z,82.39
2019-01-13T06:06:27.253Z,82.54
2019-01-13T06:08:53.543Z,82.42
2019-01-13T06:11:19.845Z,82.31
2019-01-13T06:13:46.139Z,82.35
2019-01-13T06:16:12.441Z,82.45
2019-01-13T06:18:38.730Z,82.59
2019-01-13T06:21:05.027Z,82.64
2019-01-13T06:23:31.342Z,82.73
2019-01-13T06:25:57.651Z,82.82
2019-01-13T06:28:23.946Z,82.43
2019-01-13T06:30:50.245Z,82.50
2019-01-13T06:33:16.558Z,81.88
2019-01-13T06:35:42.878Z,81.96
2019-01-13T06:38:09.171Z,82.13
2019-01-13T06:40:35.486Z,82.65
2019-01-13T06:43:01.791Z,83.01
2019-01-13T06:45:28.089Z,83.46
2019-01-13T06:47:54.405Z,83.00
2019-01-13T06:50:20.713Z,82.73
2019-01-13T06:52:47.011Z,82.80
2019-01-13T06:55:13.315Z,83.21
2019-01-13T06:57:39.630Z,83.16
2019-01-13T07:00:05.931Z,83.06
2019-01-13T07:02:32.242Z,83.31
2019-01-13T07:04:58.606Z,83.10
2019-01-13T07:07:24.853Z,83.20
2019-01-13T07:09:51.157Z,83.33
2019-01-13T07:15:01.457Z,83.13
2019-01-13T07:17:27.758Z,82.32
2019-01-13T07:19:54.070Z,82.11
2019-01-13T07:22:20.392Z,82.81
2019-01-13T07:24:46.692Z,83.23
2019-01-13T07:27:12.997Z,83.48
2019-01-13T07:29:39.341Z,82.97
2019-01-13T07:32:10.776Z,82.98
2019-01-13T07:34:31.912Z,82.85
2019-01-13T07:36:58.226Z,82.94
2019-01-13T07:39:24.525Z,82.43
2019-01-13T07:41:50.858Z,81.63
2019-01-13T07:44:17.623Z,81.86
2019-01-13T07:46:43.452Z,82.19
2019-01-13T07:49:09.749Z,82.65
2019-01-13T07:51:36.062Z,82.87
2019-01-13T07:54:02.378Z,82.89
2019-01-13T07:56:28.688Z,82.77
2019-01-13T07:58:54.989Z,82.78
2019-01-13T08:01:21.288Z,82.42
2019-01-13T08:03:47.618Z,82.21
2019-01-13T08:06:13.940Z,82.27
2019-01-13T08:08:40.254Z,82.39
2019-01-13T08:11:06.553Z,82.05
2019-01-13T08:13:32.866Z,81.19
2019-01-13T08:15:59.174Z,81.17
2019-01-13T08:18:25.478Z,81.18
2019-01-13T08:20:51.790Z,80.97
2019-01-13T08:23:18.091Z,80.84
2019-01-13T08:25:44.403Z,80.09
2019-01-13T08:28:10.700Z,79.90
2019-01-13T08:30:37.016Z,80.54
2019-01-13T08:33:03.339Z,80.64
2019-01-13T08:35:29.626Z,79.80
2019-01-13T08:37:55.918Z,79.68
2019-01-13T08:40:22.224Z,78.49
2019-01-13T08:42:48.542Z,78.82
2019-01-13T08:45:14.860Z,79.15
2019-01-13T08:47:41.177Z,79.27
2019-01-13T08:50:07.476Z,78.96
2019-01-13T08:52:33.777Z,78.95
2019-01-13T08:55:00.099Z,79.54
2019-01-13T08:57:26.392Z,81.79
2019-01-13T08:59:52.686Z,76.46
2019-01-13T09:02:18.994Z,75.56
2019-01-13T09:04:45.291Z,74.42
2019-01-13T09:07:11.647Z,74.80
2019-01-13T09:09:37.932Z,74.34
2019-01-13T09:12:04.243Z,73.35
2019-01-13T09:14:30.538Z,71.81
2019-01-13T09:16:56.863Z,72.18
2019-01-13T09:19:23.194Z,71.68
2019-01-13T09:21:49.492Z,69.57
2019-01-13T09:24:15.813Z,69.20
2019-01-13T09:26:42.116Z,70.19
2019-01-13T09:29:08.426Z,67.03
2019-01-13T09:31:34.728Z,67.12
2019-01-13T09:34:01.033Z,66.12
2019-01-13T09:36:27.329Z,63.37
2019-01-13T09:38:53.648Z,62.84
2019-01-13T09:41:19.985Z,61.64
2019-01-13T09:43:46.319Z,62.25
2019-01-13T09:46:12.619Z,60.33
2019-01-13T09:48:38.936Z,58.28
2019-01-13T09:51:05.252Z,59.44
2019-01-13T09:53:31.550Z,59.87
2019-01-13T09:55:57.863Z,62.02
2019-01-13T09:58:24.169Z,62.46
2019-01-13T10:00:50.491Z,61.31
2019-01-13T10:03:16.810Z,59.78
2019-01-13T10:05:43.122Z,60.42
2019-01-13T10:08:09.432Z,57.95
2019-01-13T10:10:35.731Z,57.73
2019-01-13T10:13:02.044Z,59.37
2019-01-13T10:15:28.383Z,57.56
2019-01-13T10:17:54.713Z,57.09
2019-01-13T10:20:20.990Z,56.33
2019-01-13T10:22:47.294Z,54.35
2019-01-13T10:25:13.594Z,56.29
2019-01-13T10:27:39.910Z,56.66
2019-01-13T10:30:06.195Z,55.07
2019-01-13T10:32:32.502Z,55.75
2019-01-13T10:34:58.795Z,55.45
2019-01-13T10:37:25.092Z,55.59
2019-01-13T10:39:51.396Z,53.21
2019-01-13T10:42:17.706Z,54.58
2019-01-13T10:44:44.028Z,54.30
2019-01-13T10:47:10.330Z,54.49
2019-01-13T10:49:36.651Z,53.98
2019-01-13T10:52:02.965Z,54.67
2019-01-13T10:54:29.373Z,55.71
2019-01-13T10:56:55.732Z,57.86
2019-01-13T10:59:21.998Z,57.78
2019-01-13T11:01:48.325Z,57.18
2019-01-13T11:04:14.625Z,57.94
2019-01-13T11:06:41.219Z,58.48
2019-01-13T11:09:07.559Z,57.77
2019-01-13T11:11:33.846Z,56.93
2019-01-13T11:14:00.152Z,54.80
2019-01-13T11:16:26.460Z,55.21
2019-01-13T11:18:52.758Z,57.35
2019-01-13T11:21:19.054Z,59.16
2019-01-13T11:23:45.367Z,59.48
2019-01-13T11:26:11.667Z,59.62
2019-01-13T11:28:37.978Z,58.91
2019-01-13T11:31:04.275Z,57.37
2019-01-13T11:33:30.576Z,58.68
2019-01-13T11:35:56.886Z,60.45
2019-01-13T11:38:23.208Z,60.98
2019-01-13T11:40:49.517Z,61.63
2019-01-13T11:43:15.985Z,61.95
2019-01-13T11:45:42.578Z,62.18
2019-01-13T11:48:08.893Z,63.46
2019-01-13T11:50:35.195Z,63.88
2019-01-13T11:53:01.496Z,64.05
2019-01-13T11:55:27.798Z,64.11
2019-01-13T11:57:54.156Z,64.78
2019-01-13T12:00:20.600Z,65.61
2019-01-13T12:02:46.959Z,65.30
2019-01-13T12:05:13.290Z,66.00
2019-01-13T12:07:39.740Z,66.87
2019-01-13T12:10:06.062Z,66.56
2019-01-13T12:12:32.379Z,67.08
2019-01-13T12:14:58.690Z,67.54
2019-01-13T12:17:24.999Z,68.46
2019-01-13T12:19:51.296Z,68.57
2019-01-13T12:22:17.598Z,68.85
2019-01-13T12:24:43.950Z,68.52
2019-01-13T12:27:10.270Z,68.63
2019-01-13T12:29:36.583Z,68.47
2019-01-13T12:32:02.915Z,68.75
2019-01-13T12:34:29.213Z,69.54
2019-01-13T12:36:55.514Z,69.27
2019-01-13T12:39:21.822Z,68.96
2019-01-13T12:41:48.158Z,68.49
2019-01-13T12:44:14.462Z,68.31
2019-01-13T12:46:40.764Z,68.14
2019-01-13T12:49:07.065Z,69.43
2019-01-13T12:51:33.362Z,69.72
2019-01-13T12:53:59.682Z,69.83
2019-01-13T12:56:25.995Z,69.16
2019-01-13T12:58:52.304Z,68.53
2019-01-13T13:01:18.616Z,68.81
2019-01-13T13:03:45.977Z,68.76
2019-01-13T13:06:12.259Z,68.86
2019-01-13T13:08:38.573Z,69.43
2019-01-13T13:11:05.206Z,70.18
2019-01-13T13:13:31.509Z,69.97
2019-01-13T13:15:57.819Z,70.02
2019-01-13T13:18:24.218Z,70.35
2019-01-13T13:20:50.508Z,69.72
2019-01-13T13:23:16.828Z,70.55
2019-01-13T13:25:43.129Z,70.08
2019-01-13T13:28:09.435Z,69.84
2019-01-13T13:30:35.765Z,70.11
2019-01-13T13:33:02.079Z,70.55
2019-01-13T13:35:28.387Z,70.08
2019-01-13T13:37:54.690Z,71.05
2019-01-13T13:40:21.848Z,70.17
2019-01-13T13:42:47.301Z,70.30
2019-01-13T13:45:13.599Z,70.59
2019-01-13T13:47:39.906Z,70.98
2019-01-13T13:50:06.218Z,70.22
2019-01-13T13:52:32.540Z,70.39
2019-01-13T13:54:58.838Z,70.38
2019-01-13T13:57:25.149Z,71.27
2019-01-13T13:59:51.467Z,71.51
2019-01-13T14:02:17.765Z,71.08
2019-01-13T14:04:44.068Z,71.62
2019-01-13T14:07:10.364Z,71.19
2019-01-13T14:09:36.672Z,71.47
2019-01-13T14:12:02.982Z,71.98
2019-01-13T14:14:29.308Z,71.85
2019-01-13T14:16:55.596Z,72.00
2019-01-13T14:19:21.904Z,72.73
2019-01-13T14:21:48.216Z,72.67
2019-01-13T14:24:14.515Z,72.96
2019-01-13T14:26:40.811Z,73.13
2019-01-13T14:29:07.122Z,72.90
2019-01-13T14:31:33.421Z,73.12
2019-01-13T14:33:59.733Z,73.19
2019-01-13T14:36:26.045Z,73.62
2019-01-13T14:38:52.354Z,74.75
2019-01-13T14:41:18.660Z,73.68
2019-01-13T14:43:44.968Z,73.79
2019-01-13T14:46:11.296Z,73.95
2019-01-13T14:48:37.581Z,74.29
2019-01-13T14:51:03.912Z,74.39
2019-01-13T14:53:30.173Z,74.64
2019-01-13T14:55:56.473Z,74.14
2019-01-13T14:58:22.797Z,74.27
2019-01-13T15:00:49.110Z,74.55
2019-01-13T15:03:15.793Z,74.34
2019-01-13T15:05:41.745Z,74.57
2019-01-13T15:08:08.059Z,74.48
2019-01-13T15:10:34.372Z,74.73
2019-01-13T15:13:00.673Z,74.81
2019-01-13T15:15:26.981Z,74.40
2019-01-13T15:17:53.367Z,74.93
2019-01-13T15:20:19.666Z,74.66
2019-01-13T15:22:47.515Z,74.20
2019-01-13T15:25:12.614Z,74.26
2019-01-13T15:27:38.916Z,74.42
2019-01-13T15:30:11.383Z,74.62
2019-01-13T15:32:37.680Z,74.48
2019-01-13T15:35:03.982Z,74.45
2019-01-13T15:37:30.295Z,75.18
2019-01-13T15:39:56.606Z,75.37
2019-01-13T15:42:22.910Z,75.35
2019-01-13T15:44:49.209Z,75.65
2019-01-13T15:47:15.547Z,75.65
2019-01-13T15:49:41.863Z,76.00
2019-01-13T15:52:08.160Z,75.67
2019-01-13T15:54:34.518Z,75.73
2019-01-13T15:57:00.891Z,75.64
2019-01-13T15:59:27.238Z,75.90
2019-01-13T16:01:53.509Z,75.78
2019-01-13T16:04:19.828Z,75.43
2019-01-13T16:06:46.131Z,75.51
2019-01-13T16:09:12.427Z,75.05
2019-01-13T16:11:38.737Z,75.36
2019-01-13T16:14:05.048Z,75.13
2019-01-13T16:16:31.371Z,74.93
2019-01-13T16:18:57.682Z,75.42
2019-01-13T16:21:23.994Z,75.68
2019-01-13T16:23:50.297Z,75.62
2019-01-13T16:26:16.606Z,75.49
2019-01-13T16:28:42.906Z,75.37
2019-01-13T16:31:09.209Z,75.09
2019-01-13T16:33:35.531Z,75.47
2019-01-13T16:36:01.823Z,75.25
2019-01-13T16:38:28.140Z,75.38
2019-01-13T16:40:54.440Z,75.39
2019-01-13T16:43:20.735Z,75.77
2019-01-13T16:45:47.032Z,75.77
2019-01-13T16:48:13.410Z,76.29
2019-01-13T16:50:39.779Z,75.95
2019-01-13T16:53:06.300Z,75.55
2019-01-13T16:55:32.444Z,74.85
2019-01-13T16:57:58.764Z,74.87
2019-01-13T17:00:25.142Z,75.00
2019-01-13T17:02:51.452Z,75.26
2019-01-13T17:05:18.221Z,75.32
2019-01-13T17:07:44.492Z,75.35
2019-01-13T17:10:14.021Z,76.01
2019-01-13T17:12:40.340Z,75.84
2019-01-13T17:15:06.667Z,75.44
2019-01-13T17:17:33.873Z,75.01
2019-01-13T17:20:00.239Z,75.21
2019-01-13T17:22:27.466Z,76.07
2019-01-13T17:24:53.764Z,75.77
2019-01-13T17:27:20.079Z,76.49
2019-01-13T17:29:46.400Z,76.90
2019-01-13T17:32:12.730Z,77.00
2019-01-13T17:34:39.034Z,76.77
2019-01-13T17:37:05.339Z,76.42
2019-01-13T17:39:31.635Z,76.08
2019-01-13T17:41:57.963Z,76.37
2019-01-13T17:44:24.322Z,76.86
2019-01-13T17:46:50.619Z,77.06
2019-01-13T17:49:17.100Z,77.23
2019-01-13T17:51:43.920Z,77.39
2019-01-13T17:54:10.240Z,77.64
2019-01-13T17:56:36.541Z,77.39
2019-01-13T17:59:02.879Z,77.83
2019-01-13T18:01:29.205Z,77.70
2019-01-13T18:03:55.647Z,78.17
2019-01-13T18:06:21.936Z,77.70
2019-01-13T18:08:48.318Z,77.72
2019-01-13T18:11:14.586Z,78.23
2019-01-13T18:13:40.890Z,78.57
2019-01-13T18:16:07.218Z,78.67
2019-01-13T18:18:33.533Z,78.97
2019-01-13T18:20:59.836Z,78.88
2019-01-13T18:23:26.157Z,78.88
2019-01-13T18:25:52.462Z,78.58
2019-01-13T18:28:18.854Z,78.65
2019-01-13T18:30:47.548Z,79.01
2019-01-13T18:33:13.866Z,78.95
2019-01-13T18:35:40.199Z,78.94
2019-01-13T18:38:06.498Z,79.02
2019-01-13T18:40:32.820Z,79.16
2019-01-13T18:42:59.130Z,79.40
2019-01-13T18:45:25.436Z,79.64
2019-01-13T18:47:51.746Z,79.60
2019-01-13T18:50:18.046Z,79.78
2019-01-13T18:52:44.392Z,79.95
2019-01-13T18:55:10.688Z,80.15
2019-01-13T18:57:36.984Z,80.34
2019-01-13T19:00:03.294Z,80.11
2019-01-13T19:02:30.860Z,79.85
2019-01-13T19:04:57.340Z,79.96
2019-01-13T19:07:22.222Z,79.92
2019-01-13T19:09:48.522Z,79.98
2019-01-13T19:12:14.830Z,79.65
2019-01-13T19:14:41.142Z,79.88
2019-01-13T19:17:07.462Z,80.05
2019-01-13T19:19:33.764Z,80.40
2019-01-13T19:22:00.057Z,80.31
2019-01-13T19:24:26.356Z,80.44
2019-01-13T19:26:52.657Z,80.47
2019-01-13T19:29:18.983Z,80.63
2019-01-13T19:31:45.298Z,80.98
2019-01-13T19:34:12.656Z,81.35
2019-01-13T19:36:37.909Z,81.53
2019-01-13T19:39:04.226Z,81.63
2019-01-13T19:41:30.529Z,81.78
2019-01-13T19:43:56.839Z,81.77
2019-01-13T19:46:23.150Z,81.53
2019-01-13T19:48:49.711Z,81.44
2019-01-13T19:51:16.014Z,82.09
2019-01-13T19:53:42.319Z,82.37
2019-01-13T19:56:08.617Z,82.57
2019-01-13T19:58:34.912Z,82.91
2019-01-13T20:01:01.226Z,83.03
2019-01-13T20:03:27.524Z,82.96
2019-01-13T20:05:53.833Z,82.96
2019-01-13T20:08:20.151Z,83.45
2019-01-13T20:10:46.484Z,84.58
2019-01-13T20:13:12.781Z,84.91
2019-01-13T20:15:39.290Z,85.41
2019-01-13T20:18:05.614Z,85.20
2019-01-13T20:20:31.896Z,85.31
2019-01-13T20:22:58.450Z,85.31
2019-01-13T20:25:24.785Z,85.34
2019-01-13T20:27:53.181Z,85.19
2019-01-13T20:30:17.406Z,85.19
2019-01-13T20:32:43.718Z,85.62
2019-01-13T20:35:10.140Z,85.22
2019-01-13T20:37:36.914Z,85.29
2019-01-13T20:40:03.166Z,85.99
2019-01-13T20:42:29.473Z,86.34
2019-01-13T20:44:55.791Z,85.88
2019-01-13T20:47:22.113Z,85.52
2019-01-13T20:49:48.399Z,86.20
2019-01-13T20:52:14.722Z,86.12
2019-01-13T20:54:41.030Z,85.98
2019-01-13T20:57:07.361Z,85.92
2019-01-13T20:59:33.670Z,85.86
2019-01-13T21:02:00.129Z,86.43
2019-01-13T21:04:26.443Z,86.33
2019-01-13T21:06:52.743Z,86.10
2019-01-13T21:09:19.044Z,86.06
2019-01-13T21:11:45.564Z,86.12
2019-01-13T21:14:11.884Z,86.00
2019-01-13T21:16:38.213Z,86.23
2019-01-13T21:19:04.533Z,86.25
2019-01-13T21:21:30.842Z,86.17
2019-01-13T21:23:57.147Z,85.90
2019-01-13T21:26:23.457Z,85.91
2019-01-13T21:28:49.774Z,85.63
2019-01-13T21:31:18.571Z,85.51
2019-01-13T21:33:47.416Z,85.33
2019-01-13T21:36:11.334Z,85.35
2019-01-13T21:38:37.645Z,85.75
2019-01-13T21:41:03.942Z,86.11
2019-01-13T21:43:30.239Z,86.51
2019-01-13T21:45:56.540Z,86.54
2019-01-13T21:48:22.869Z,86.56
2019-01-13T21:50:49.179Z,86.12
2019-01-13T21:53:15.479Z,86.18
2019-01-13T21:55:41.785Z,86.27
2019-01-13T21:58:08.093Z,86.12
2019-01-13T22:00:34.392Z,86.10
2019-01-13T22:03:00.717Z,86.36
2019-01-13T22:05:27.019Z,86.80
2019-01-13T22:07:53.339Z,86.89
2019-01-13T22:10:19.644Z,86.82
2019-01-13T22:12:45.959Z,86.86
2019-01-13T22:15:12.273Z,86.69
2019-01-13T22:17:38.577Z,86.58
2019-01-13T22:20:04.877Z,86.55
2019-01-13T22:22:31.170Z,86.27
2019-01-13T22:24:57.477Z,85.78
2019-01-13T22:27:23.780Z,85.59
2019-01-13T22:29:50.097Z,85.77
2019-01-13T22:32:16.395Z,86.26
2019-01-13T22:34:42.703Z,86.01
2019-01-13T22:37:09.015Z,86.10
2019-01-13T22:39:35.344Z,86.24
2019-01-13T22:42:01.646Z,86.58
2019-01-13T22:44:27.974Z,86.45
2019-01-13T22:46:54.304Z,86.16
2019-01-13T22:49:20.615Z,85.69
2019-01-13T22:51:46.919Z,86.01
2019-01-13T22:54:13.218Z,86.73
2019-01-13T22:56:39.519Z,86.90
2019-01-13T22:59:05.836Z,87.15
2019-01-13T23:01:32.145Z,87.11
2019-01-13T23:03:58.451Z,86.58
2019-01-13T23:06:24.773Z,86.52
2019-01-13T23:08:51.087Z,86.37
2019-01-13T23:11:17.386Z,85.69
2019-01-13T23:13:43.685Z,85.71
2019-01-13T23:16:09.997Z,85.65
2019-01-13T23:18:36.296Z,86.15
2019-01-13T23:21:02.595Z,85.31
2019-01-13T23:23:28.909Z,85.52
2019-01-13T23:25:55.257Z,84.93
2019-01-13T23:28:21.541Z,84.78
2019-01-13T23:30:47.879Z,85.03
2019-01-13T23:33:14.170Z,85.93
2019-01-13T23:35:40.504Z,86.42
2019-01-13T23:38:06.784Z,86.67
2019-01-13T23:40:33.100Z,86.43
2019-01-13T23:42:59.422Z,86.27
2019-01-13T23:45:25.721Z,86.31
2019-01-13T23:47:52.075Z,85.87
2019-01-13T23:50:18.392Z,86.00
2019-01-13T23:52:44.697Z,86.05
2019-01-13T23:55:11.011Z,86.25
2019-01-13T23:57:37.324Z,86.12
